sensor_id;sensor_type;location;lat;lon;timestamp;pressure;altitude;pressure_sealevel;temperature;humidity
57232;BME280;43488;46.934;8.276;2023-11-18T00:02:18;97413.03;;;5.38;100.00
57232;BME280;43488;46.934;8.276;2023-11-18T00:04:45;97413.34;;;5.35;100.00
57232;BME280;43488;46.934;8.276;2023-11-18T00:07:12;97411.88;;;5.32;100.00
57232;BME280;43488;46.934;8.276;2023-11-18T00:09:40;97423.72;;;5.27;100.00
57232;BME280;43488;46.934;8.276;2023-11-18T00:12:08;97413.44;;;5.25;100.00
57232;BME280;43488;46.934;8.276;2023-11-18T00:14:35;97410.50;;;5.28;100.00
57232;BME280;43488;46.934;8.276;2023-11-18T00:17:03;97417.38;;;5.29;100.00
57232;BME280;43488;46.934;8.276;2023-11-18T00:19:31;97421.13;;;5.27;100.00
57232;BME280;43488;46.934;8.276;2023-11-18T00:21:59;97419.63;;;5.24;100.00
57232;BME280;43488;46.934;8.276;2023-11-18T00:24:26;97416.50;;;5.21;100.00
57232;BME280;43488;46.934;8.276;2023-11-18T00:26:54;97423.38;;;5.22;100.00
57232;BME280;43488;46.934;8.276;2023-11-18T00:29:22;97413.75;;;5.22;100.00
57232;BME280;43488;46.934;8.276;2023-11-18T00:31:50;97415.59;;;5.12;100.00
57232;BME280;43488;46.934;8.276;2023-11-18T00:34:18;97417.56;;;5.10;100.00
57232;BME280;43488;46.934;8.276;2023-11-18T00:36:45;97418.38;;;5.10;100.00
57232;BME280;43488;46.934;8.276;2023-11-18T00:39:12;97417.28;;;5.13;100.00
57232;BME280;43488;46.934;8.276;2023-11-18T00:41:40;97412.13;;;5.03;100.00
57232;BME280;43488;46.934;8.276;2023-11-18T00:44:08;97412.56;;;4.99;100.00
57232;BME280;43488;46.934;8.276;2023-11-18T00:46:36;97418.84;;;4.88;100.00
57232;BME280;43488;46.934;8.276;2023-11-18T00:49:04;97410.84;;;4.90;100.00
57232;BME280;43488;46.934;8.276;2023-11-18T00:51:32;97418.38;;;4.93;100.00
57232;BME280;43488;46.934;8.276;2023-11-18T00:54:00;97417.41;;;4.94;100.00
57232;BME280;43488;46.934;8.276;2023-11-18T00:56:33;97429.50;;;4.95;100.00
57232;BME280;43488;46.934;8.276;2023-11-18T00:59:01;97419.06;;;4.95;100.00
57232;BME280;43488;46.934;8.276;2023-11-18T01:01:29;97422.13;;;4.90;100.00
57232;BME280;43488;46.934;8.276;2023-11-18T01:03:58;97422.25;;;4.89;100.00
57232;BME280;43488;46.934;8.276;2023-11-18T01:06:27;97424.06;;;4.88;100.00
57232;BME280;43488;46.934;8.276;2023-11-18T01:08:54;97420.63;;;4.88;100.00
57232;BME280;43488;46.934;8.276;2023-11-18T01:11:21;97420.63;;;4.88;100.00
57232;BME280;43488;46.934;8.276;2023-11-18T01:13:49;97422.03;;;4.82;100.00
57232;BME280;43488;46.934;8.276;2023-11-18T01:16:17;97429.19;;;4.80;100.00
57232;BME280;43488;46.934;8.276;2023-11-18T01:18:44;97433.09;;;4.76;100.00
57232;BME280;43488;46.934;8.276;2023-11-18T01:21:13;97434.03;;;4.75;100.00
57232;BME280;43488;46.934;8.276;2023-11-18T01:23:40;97434.84;;;4.75;100.00
57232;BME280;43488;46.934;8.276;2023-11-18T01:26:10;97436.19;;;4.79;100.00
57232;BME280;43488;46.934;8.276;2023-11-18T01:28:39;97442.53;;;4.77;100.00
57232;BME280;43488;46.934;8.276;2023-11-18T01:31:10;97434.09;;;4.83;100.00
57232;BME280;43488;46.934;8.276;2023-11-18T01:33:39;97435.06;;;4.82;100.00
57232;BME280;43488;46.934;8.276;2023-11-18T01:36:12;97433.13;;;4.84;100.00
57232;BME280;43488;46.934;8.276;2023-11-18T01:38:39;97432.63;;;4.80;100.00
57232;BME280;43488;46.934;8.276;2023-11-18T01:41:08;97425.91;;;4.78;100.00
57232;BME280;43488;46.934;8.276;2023-11-18T01:43:36;97426.34;;;4.73;100.00
57232;BME280;43488;46.934;8.276;2023-11-18T01:46:06;97437.31;;;4.77;100.00
57232;BME280;43488;46.934;8.276;2023-11-18T01:48:38;97429.94;;;4.72;100.00
57232;BME280;43488;46.934;8.276;2023-11-18T01:51:08;97439.25;;;4.75;100.00
57232;BME280;43488;46.934;8.276;2023-11-18T01:53:37;97439.38;;;4.55;100.00
57232;BME280;43488;46.934;8.276;2023-11-18T01:56:08;97442.28;;;4.52;100.00
57232;BME280;43488;46.934;8.276;2023-11-18T01:58:38;97439.00;;;4.50;100.00
57232;BME280;43488;46.934;8.276;2023-11-18T02:01:08;97443.41;;;4.50;100.00
57232;BME280;43488;46.934;8.276;2023-11-18T02:03:37;97448.63;;;4.50;100.00
57232;BME280;43488;46.934;8.276;2023-11-18T02:06:09;97451.38;;;4.48;100.00
57232;BME280;43488;46.934;8.276;2023-11-18T02:08:37;97452.31;;;4.47;100.00
57232;BME280;43488;46.934;8.276;2023-11-18T02:11:36;97449.09;;;4.36;100.00
57232;BME280;43488;46.934;8.276;2023-11-18T02:14:09;97454.06;;;4.29;100.00
57232;BME280;43488;46.934;8.276;2023-11-18T02:16:40;97450.50;;;4.30;100.00
57232;BME280;43488;46.934;8.276;2023-11-18T02:19:24;97438.16;;;4.32;100.00
57232;BME280;43488;46.934;8.276;2023-11-18T02:21:55;97426.19;;;4.29;100.00
57232;BME280;43488;46.934;8.276;2023-11-18T02:24:28;97432.53;;;4.27;100.00
57232;BME280;43488;46.934;8.276;2023-11-18T02:26:58;97427.31;;;4.27;100.00
57232;BME280;43488;46.934;8.276;2023-11-18T02:29:36;97439.78;;;4.33;100.00
57232;BME280;43488;46.934;8.276;2023-11-18T02:37:46;97415.22;;;4.08;100.00
57232;BME280;43488;46.934;8.276;2023-11-18T02:43:01;97400.38;;;4.09;100.00
57232;BME280;43488;46.934;8.276;2023-11-18T02:45:29;97388.59;;;4.14;100.00
57232;BME280;43488;46.934;8.276;2023-11-18T02:47:59;97392.38;;;4.20;100.00
57232;BME280;43488;46.934;8.276;2023-11-18T02:50:26;97382.19;;;4.26;100.00
57232;BME280;43488;46.934;8.276;2023-11-18T02:52:54;97386.16;;;4.31;100.00
57232;BME280;43488;46.934;8.276;2023-11-18T02:55:22;97394.81;;;4.31;100.00
57232;BME280;43488;46.934;8.276;2023-11-18T02:57:51;97403.34;;;4.23;100.00
57232;BME280;43488;46.934;8.276;2023-11-18T03:00:21;97405.13;;;4.23;100.00
57232;BME280;43488;46.934;8.276;2023-11-18T03:02:50;97407.78;;;4.13;100.00
57232;BME280;43488;46.934;8.276;2023-11-18T03:05:18;97409.19;;;4.08;100.00
57232;BME280;43488;46.934;8.276;2023-11-18T03:07:46;97410.28;;;4.05;100.00
57232;BME280;43488;46.934;8.276;2023-11-18T03:10:17;97407.53;;;4.07;100.00
57232;BME280;43488;46.934;8.276;2023-11-18T03:12:51;97404.41;;;4.03;100.00
57232;BME280;43488;46.934;8.276;2023-11-18T03:15:21;97406.31;;;4.01;100.00
57232;BME280;43488;46.934;8.276;2023-11-18T03:17:49;97390.16;;;3.97;100.00
57232;BME280;43488;46.934;8.276;2023-11-18T03:20:19;97390.06;;;3.89;100.00
57232;BME280;43488;46.934;8.276;2023-11-18T03:22:47;97387.75;;;3.86;100.00
57232;BME280;43488;46.934;8.276;2023-11-18T03:25:15;97398.06;;;3.78;100.00
57232;BME280;43488;46.934;8.276;2023-11-18T03:27:43;97397.41;;;3.76;100.00
57232;BME280;43488;46.934;8.276;2023-11-18T03:30:12;97404.25;;;3.77;100.00
57232;BME280;43488;46.934;8.276;2023-11-18T03:32:40;97404.25;;;3.77;100.00
57232;BME280;43488;46.934;8.276;2023-11-18T03:35:08;97410.28;;;3.78;100.00
57232;BME280;43488;46.934;8.276;2023-11-18T03:37:39;97409.97;;;3.81;100.00
57232;BME280;43488;46.934;8.276;2023-11-18T03:40:14;97416.16;;;3.80;100.00
57232;BME280;43488;46.934;8.276;2023-11-18T03:42:42;97403.69;;;3.74;100.00
57232;BME280;43488;46.934;8.276;2023-11-18T03:45:09;97414.00;;;3.65;100.00
57232;BME280;43488;46.934;8.276;2023-11-18T03:47:37;97406.34;;;3.54;100.00
57232;BME280;43488;46.934;8.276;2023-11-18T03:50:05;97402.97;;;3.44;100.00
57232;BME280;43488;46.934;8.276;2023-11-18T03:52:36;97406.81;;;3.40;100.00
57232;BME280;43488;46.934;8.276;2023-11-18T03:55:05;97407.06;;;3.47;100.00
57232;BME280;43488;46.934;8.276;2023-11-18T03:57:32;97409.81;;;3.45;100.00
57232;BME280;43488;46.934;8.276;2023-11-18T04:00:00;97393.94;;;3.48;100.00
57232;BME280;43488;46.934;8.276;2023-11-18T04:02:27;97400.06;;;3.57;100.00
57232;BME280;43488;46.934;8.276;2023-11-18T04:04:55;97411.81;;;3.61;100.00
57232;BME280;43488;46.934;8.276;2023-11-18T04:07:23;97402.53;;;3.58;100.00
57232;BME280;43488;46.934;8.276;2023-11-18T04:09:50;97400.06;;;3.57;100.00
57232;BME280;43488;46.934;8.276;2023-11-18T04:12:21;97392.53;;;3.54;100.00
57232;BME280;43488;46.934;8.276;2023-11-18T04:14:48;97392.13;;;3.49;100.00
57232;BME280;43488;46.934;8.276;2023-11-18T04:17:15;97389.94;;;3.44;100.00
57232;BME280;43488;46.934;8.276;2023-11-18T04:19:43;97391.47;;;3.37;100.00
57232;BME280;43488;46.934;8.276;2023-11-18T04:22:10;97396.53;;;3.29;100.00
57232;BME280;43488;46.934;8.276;2023-11-18T04:24:37;97405.31;;;3.28;100.00
57232;BME280;43488;46.934;8.276;2023-11-18T04:27:05;97406.44;;;3.16;100.00
57232;BME280;43488;46.934;8.276;2023-11-18T04:29:33;97396.84;;;3.16;100.00
57232;BME280;43488;46.934;8.276;2023-11-18T04:32:03;97404.78;;;3.24;100.00
57232;BME280;43488;46.934;8.276;2023-11-18T04:34:31;97406.13;;;3.28;100.00
57232;BME280;43488;46.934;8.276;2023-11-18T04:37:00;97403.94;;;3.33;100.00
57232;BME280;43488;46.934;8.276;2023-11-18T04:39:27;97404.91;;;3.32;100.00
57232;BME280;43488;46.934;8.276;2023-11-18T04:41:55;97401.22;;;3.16;100.00
57232;BME280;43488;46.934;8.276;2023-11-18T04:44:23;97394.69;;;3.02;100.00
57232;BME280;43488;46.934;8.276;2023-11-18T04:46:50;97398.94;;;3.03;100.00
57232;BME280;43488;46.934;8.276;2023-11-18T04:49:19;97393.72;;;3.03;100.00
57232;BME280;43488;46.934;8.276;2023-11-18T04:51:46;97414.25;;;2.96;100.00
57232;BME280;43488;46.934;8.276;2023-11-18T04:54:13;97416.03;;;2.96;100.00
57232;BME280;43488;46.934;8.276;2023-11-18T04:56:41;97404.66;;;3.06;100.00
57232;BME280;43488;46.934;8.276;2023-11-18T04:59:09;97407.13;;;3.08;100.00
57232;BME280;43488;46.934;8.276;2023-11-18T05:01:36;97412.19;;;3.09;100.00
57232;BME280;43488;46.934;8.276;2023-11-18T05:04:04;97404.81;;;3.05;100.00
57232;BME280;43488;46.934;8.276;2023-11-18T05:06:33;97403.44;;;2.91;100.00
57232;BME280;43488;46.934;8.276;2023-11-18T05:09:00;97397.69;;;2.88;100.00
57232;BME280;43488;46.934;8.276;2023-11-18T05:11:28;97396.72;;;2.89;100.00
57232;BME280;43488;46.934;8.276;2023-11-18T05:13:56;97394.66;;;2.92;100.00
57232;BME280;43488;46.934;8.276;2023-11-18T05:16:23;97388.78;;;3.00;100.00
57232;BME280;43488;46.934;8.276;2023-11-18T05:18:50;97379.47;;;3.07;100.00
57232;BME280;43488;46.934;8.276;2023-11-18T05:21:18;97380.41;;;3.16;100.00
57232;BME280;43488;46.934;8.276;2023-11-18T05:23:45;97373.59;;;3.05;100.00
57232;BME280;43488;46.934;8.276;2023-11-18T05:26:14;97376.88;;;3.07;100.00
57232;BME280;43488;46.934;8.276;2023-11-18T05:28:41;97378.25;;;3.11;100.00
57232;BME280;43488;46.934;8.276;2023-11-18T05:31:12;97374.53;;;3.13;100.00
57232;BME280;43488;46.934;8.276;2023-11-18T05:33:39;97377.41;;;3.20;100.00
57232;BME280;43488;46.934;8.276;2023-11-18T05:36:08;97380.25;;;3.27;100.00
57232;BME280;43488;46.934;8.276;2023-11-18T05:38:35;97378.22;;;3.30;100.00
57232;BME280;43488;46.934;8.276;2023-11-18T05:41:03;97377.09;;;3.33;100.00
57232;BME280;43488;46.934;8.276;2023-11-18T05:43:33;97377.63;;;3.36;100.00
57232;BME280;43488;46.934;8.276;2023-11-18T05:46:04;97378.03;;;3.41;100.00
57232;BME280;43488;46.934;8.276;2023-11-18T05:48:53;97377.22;;;3.41;100.00
57232;BME280;43488;46.934;8.276;2023-11-18T05:51:25;97366.81;;;3.41;100.00
57232;BME280;43488;46.934;8.276;2023-11-18T05:53:53;97364.72;;;3.45;100.00
57232;BME280;43488;46.934;8.276;2023-11-18T05:56:21;97361.16;;;3.46;100.00
57232;BME280;43488;46.934;8.276;2023-11-18T05:58:49;97363.75;;;3.46;100.00
57232;BME280;43488;46.934;8.276;2023-11-18T06:01:17;97367.34;;;3.45;100.00
57232;BME280;43488;46.934;8.276;2023-11-18T06:03:44;97361.00;;;3.47;100.00
57232;BME280;43488;46.934;8.276;2023-11-18T06:06:15;97368.84;;;3.37;100.00
57232;BME280;43488;46.934;8.276;2023-11-18T06:08:43;97371.06;;;3.32;100.00
57232;BME280;43488;46.934;8.276;2023-11-18T06:11:12;97369.16;;;3.34;100.00
57232;BME280;43488;46.934;8.276;2023-11-18T06:13:50;97372.56;;;3.35;100.00
57232;BME280;43488;46.934;8.276;2023-11-18T06:16:22;97374.34;;;3.34;100.00
57232;BME280;43488;46.934;8.276;2023-11-18T06:18:56;97374.78;;;3.30;100.00
57232;BME280;43488;46.934;8.276;2023-11-18T06:21:25;97391.22;;;3.30;100.00
57232;BME280;43488;46.934;8.276;2023-11-18T06:24:01;97393.69;;;3.32;100.00
57232;BME280;43488;46.934;8.276;2023-11-18T06:26:28;97383.78;;;3.35;100.00
57232;BME280;43488;46.934;8.276;2023-11-18T06:28:56;97391.19;;;3.40;100.00
57232;BME280;43488;46.934;8.276;2023-11-18T06:31:24;97386.53;;;3.43;100.00
57232;BME280;43488;46.934;8.276;2023-11-18T06:33:51;97387.47;;;3.42;100.00
57232;BME280;43488;46.934;8.276;2023-11-18T06:36:19;97391.72;;;3.43;100.00
57232;BME280;43488;46.934;8.276;2023-11-18T06:38:50;97370.91;;;3.43;100.00
57232;BME280;43488;46.934;8.276;2023-11-18T06:41:21;97372.28;;;3.48;100.00
57232;BME280;43488;46.934;8.276;2023-11-18T06:43:50;97374.88;;;3.48;100.00
57232;BME280;43488;46.934;8.276;2023-11-18T06:46:30;97383.66;;;3.37;100.00
57232;BME280;43488;46.934;8.276;2023-11-18T06:49:02;97373.25;;;3.27;100.00
57232;BME280;43488;46.934;8.276;2023-11-18T06:51:32;97368.63;;;3.31;100.00
57232;BME280;43488;46.934;8.276;2023-11-18T06:54:02;97367.22;;;3.36;100.00
57232;BME280;43488;46.934;8.276;2023-11-18T06:56:43;97375.16;;;3.35;100.00
57232;BME280;43488;46.934;8.276;2023-11-18T06:59:13;97371.59;;;3.36;100.00
57232;BME280;43488;46.934;8.276;2023-11-18T07:01:41;97362.56;;;3.40;100.00
57232;BME280;43488;46.934;8.276;2023-11-18T07:04:11;97368.00;;;3.47;100.00
57232;BME280;43488;46.934;8.276;2023-11-18T07:06:39;97372.38;;;3.56;100.00
57232;BME280;43488;46.934;8.276;2023-11-18T07:09:08;97373.88;;;3.58;100.00
57232;BME280;43488;46.934;8.276;2023-11-18T07:11:48;97371.28;;;3.58;100.00
57232;BME280;43488;46.934;8.276;2023-11-18T07:14:15;97374.25;;;3.63;100.00
57232;BME280;43488;46.934;8.276;2023-11-18T07:16:43;97370.69;;;3.64;100.00
57232;BME280;43488;46.934;8.276;2023-11-18T07:19:12;97372.06;;;3.68;100.00
57232;BME280;43488;46.934;8.276;2023-11-18T07:21:47;97367.53;;;3.70;100.00
57232;BME280;43488;46.934;8.276;2023-11-18T07:24:16;97370.38;;;3.77;100.00
57232;BME280;43488;46.934;8.276;2023-11-18T07:26:45;97375.16;;;3.82;100.00
57232;BME280;43488;46.934;8.276;2023-11-18T07:29:12;97374.59;;;3.88;100.00
57232;BME280;43488;46.934;8.276;2023-11-18T07:31:40;97382.78;;;3.93;100.00
57232;BME280;43488;46.934;8.276;2023-11-18T07:34:07;97385.63;;;3.99;100.00
57232;BME280;43488;46.934;8.276;2023-11-18T07:36:34;97384.00;;;3.98;100.00
57232;BME280;43488;46.934;8.276;2023-11-18T07:39:03;97384.81;;;3.99;100.00
57232;BME280;43488;46.934;8.276;2023-11-18T07:41:31;97391.56;;;3.92;100.00
57232;BME280;43488;46.934;8.276;2023-11-18T07:43:58;97396.66;;;3.84;100.00
57232;BME280;43488;46.934;8.276;2023-11-18T07:46:26;97395.31;;;3.80;100.00
57232;BME280;43488;46.934;8.276;2023-11-18T07:48:53;97397.25;;;3.78;100.00
57232;BME280;43488;46.934;8.276;2023-11-18T07:51:21;97402.97;;;3.81;100.00
57232;BME280;43488;46.934;8.276;2023-11-18T07:53:51;97406.22;;;3.93;100.00
57232;BME280;43488;46.934;8.276;2023-11-18T07:56:19;97408.34;;;4.07;100.00
57232;BME280;43488;46.934;8.276;2023-11-18T07:58:49;97404.22;;;4.14;100.00
57232;BME280;43488;46.934;8.276;2023-11-18T08:01:18;97402.75;;;4.29;100.00
57232;BME280;43488;46.934;8.276;2023-11-18T08:03:45;97404.72;;;4.45;100.00
57232;BME280;43488;46.934;8.276;2023-11-18T08:06:13;97399.00;;;4.60;100.00
57232;BME280;43488;46.934;8.276;2023-11-18T08:08:40;97388.50;;;4.69;100.00
57232;BME280;43488;46.934;8.276;2023-11-18T08:11:11;97387.88;;;4.75;100.00
57232;BME280;43488;46.934;8.276;2023-11-18T08:13:39;97385.66;;;4.80;100.00
57232;BME280;43488;46.934;8.276;2023-11-18T08:16:07;97388.13;;;4.82;100.00
57232;BME280;43488;46.934;8.276;2023-11-18T08:18:35;97399.84;;;4.96;100.00
57232;BME280;43488;46.934;8.276;2023-11-18T08:21:04;97394.53;;;5.05;100.00
57232;BME280;43488;46.934;8.276;2023-11-18T08:23:34;97388.25;;;5.16;100.00
57232;BME280;43488;46.934;8.276;2023-11-18T08:26:01;97394.50;;;5.23;100.00
57232;BME280;43488;46.934;8.276;2023-11-18T08:28:29;97395.16;;;5.25;100.00
57232;BME280;43488;46.934;8.276;2023-11-18T08:30:56;97396.44;;;5.47;100.00
57232;BME280;43488;46.934;8.276;2023-11-18T08:33:23;97388.56;;;5.65;100.00
57232;BME280;43488;46.934;8.276;2023-11-18T08:35:52;97400.50;;;5.93;100.00
57232;BME280;43488;46.934;8.276;2023-11-18T08:38:19;97401.66;;;5.99;99.46
57232;BME280;43488;46.934;8.276;2023-11-18T08:40:47;97404.66;;;6.04;98.27
57232;BME280;43488;46.934;8.276;2023-11-18T08:43:15;97404.13;;;6.01;97.79
57232;BME280;43488;46.934;8.276;2023-11-18T08:45:43;97402.81;;;5.96;99.81
57232;BME280;43488;46.934;8.276;2023-11-18T08:48:10;97395.47;;;6.00;100.00
57232;BME280;43488;46.934;8.276;2023-11-18T08:50:38;97385.81;;;6.01;100.00
57232;BME280;43488;46.934;8.276;2023-11-18T08:53:10;97381.25;;;5.94;100.00
57232;BME280;43488;46.934;8.276;2023-11-18T08:55:39;97368.84;;;5.96;100.00
57232;BME280;43488;46.934;8.276;2023-11-18T08:58:11;97358.22;;;5.98;100.00
57232;BME280;43488;46.934;8.276;2023-11-18T09:00:57;97355.63;;;6.06;99.74
57232;BME280;43488;46.934;8.276;2023-11-18T09:03:41;97344.53;;;6.12;98.03
57232;BME280;43488;46.934;8.276;2023-11-18T09:06:19;97340.00;;;6.22;99.13
57232;BME280;43488;46.934;8.276;2023-11-18T09:08:54;97344.56;;;6.20;95.83
57232;BME280;43488;46.934;8.276;2023-11-18T09:11:23;97343.28;;;6.24;96.50
57232;BME280;43488;46.934;8.276;2023-11-18T09:13:54;97341.81;;;6.38;96.88
57232;BME280;43488;46.934;8.276;2023-11-18T09:16:24;97343.31;;;6.41;97.89
57232;BME280;43488;46.934;8.276;2023-11-18T09:18:58;97346.06;;;6.39;96.60
57232;BME280;43488;46.934;8.276;2023-11-18T09:21:27;97326.94;;;6.39;95.02
57232;BME280;43488;46.934;8.276;2023-11-18T09:23:56;97333.81;;;6.40;97.33
57232;BME280;43488;46.934;8.276;2023-11-18T09:26:23;97331.22;;;6.48;98.41
57232;BME280;43488;46.934;8.276;2023-11-18T09:28:52;97325.97;;;6.48;98.00
57232;BME280;43488;46.934;8.276;2023-11-18T09:31:20;97312.91;;;6.48;96.25
57232;BME280;43488;46.934;8.276;2023-11-18T09:33:49;97303.41;;;6.47;97.00
57232;BME280;43488;46.934;8.276;2023-11-18T09:36:19;97311.28;;;6.47;97.48
57232;BME280;43488;46.934;8.276;2023-11-18T09:38:47;97312.25;;;6.54;97.32
57232;BME280;43488;46.934;8.276;2023-11-18T09:41:15;97311.63;;;6.60;95.73
57232;BME280;43488;46.934;8.276;2023-11-18T09:43:44;97302.81;;;6.69;93.92
57232;BME280;43488;46.934;8.276;2023-11-18T09:46:26;97302.47;;;6.80;93.69
57232;BME280;43488;46.934;8.276;2023-11-18T09:49:25;97298.88;;;6.90;92.01
57232;BME280;43488;46.934;8.276;2023-11-18T09:52:05;97309.63;;;7.03;92.00
57232;BME280;43488;46.934;8.276;2023-11-18T09:55:04;97318.00;;;6.98;86.08
57232;BME280;43488;46.934;8.276;2023-11-18T09:57:44;97320.63;;;6.98;86.95
57232;BME280;43488;46.934;8.276;2023-11-18T10:00:16;97329.94;;;6.93;86.92
57232;BME280;43488;46.934;8.276;2023-11-18T10:02:54;97346.28;;;6.95;88.08
57232;BME280;43488;46.934;8.276;2023-11-18T10:05:24;97342.84;;;6.94;86.63
57232;BME280;43488;46.934;8.276;2023-11-18T10:07:53;97343.53;;;6.88;88.55
57232;BME280;43488;46.934;8.276;2023-11-18T10:10:21;97341.09;;;6.87;88.16
57232;BME280;43488;46.934;8.276;2023-11-18T10:12:51;97334.34;;;6.92;87.70
57232;BME280;43488;46.934;8.276;2023-11-18T10:15:25;97337.78;;;6.93;88.37
57232;BME280;43488;46.934;8.276;2023-11-18T10:17:54;97340.41;;;6.93;90.36
57232;BME280;43488;46.934;8.276;2023-11-18T10:23:10;97330.28;;;7.06;87.58
57232;BME280;43488;46.934;8.276;2023-11-18T10:25:52;97321.44;;;7.15;86.49
57232;BME280;43488;46.934;8.276;2023-11-18T10:28:34;97331.22;;;7.21;85.66
57232;BME280;43488;46.934;8.276;2023-11-18T10:31:06;97335.63;;;7.21;86.40
57232;BME280;43488;46.934;8.276;2023-11-18T10:33:39;97332.72;;;7.24;87.15
57232;BME280;43488;46.934;8.276;2023-11-18T10:36:20;97327.47;;;7.24;85.21
57232;BME280;43488;46.934;8.276;2023-11-18T10:38:52;97317.31;;;7.29;84.24
57232;BME280;43488;46.934;8.276;2023-11-18T10:41:23;97316.97;;;7.32;81.99
57232;BME280;43488;46.934;8.276;2023-11-18T10:44:06;97325.66;;;7.32;80.97
57232;BME280;43488;46.934;8.276;2023-11-18T10:46:35;97334.16;;;7.26;80.71
57232;BME280;43488;46.934;8.276;2023-11-18T10:49:05;97335.81;;;7.27;81.94
57232;BME280;43488;46.934;8.276;2023-11-18T10:51:39;97324.34;;;7.28;83.82
57232;BME280;43488;46.934;8.276;2023-11-18T10:54:08;97334.00;;;7.28;82.63
57232;BME280;43488;46.934;8.276;2023-11-18T10:56:51;97316.13;;;7.31;85.45
57232;BME280;43488;46.934;8.276;2023-11-18T10:59:23;97320.38;;;7.40;86.71
57232;BME280;43488;46.934;8.276;2023-11-18T11:01:52;97326.28;;;7.43;86.37
57232;BME280;43488;46.934;8.276;2023-11-18T11:04:19;97324.97;;;7.47;86.10
57232;BME280;43488;46.934;8.276;2023-11-18T11:06:50;97327.56;;;7.47;85.77
57232;BME280;43488;46.934;8.276;2023-11-18T11:09:25;97329.56;;;7.45;84.65
57232;BME280;43488;46.934;8.276;2023-11-18T11:11:59;97327.59;;;7.38;84.27
57232;BME280;43488;46.934;8.276;2023-11-18T11:14:53;97336.78;;;7.26;83.44
57232;BME280;43488;46.934;8.276;2023-11-18T11:17:27;97339.25;;;7.28;83.78
57232;BME280;43488;46.934;8.276;2023-11-18T11:20:06;97332.38;;;7.27;85.58
57232;BME280;43488;46.934;8.276;2023-11-18T11:31:57;97341.56;;;7.23;82.48
57232;BME280;43488;46.934;8.276;2023-11-18T11:34:29;97353.97;;;7.29;83.56
57232;BME280;43488;46.934;8.276;2023-11-18T11:36:59;97347.25;;;7.26;85.02
57232;BME280;43488;46.934;8.276;2023-11-18T11:39:28;97350.38;;;7.30;84.45
57232;BME280;43488;46.934;8.276;2023-11-18T11:41:58;97353.78;;;7.30;84.30
57232;BME280;43488;46.934;8.276;2023-11-18T11:44:27;97356.28;;;7.32;85.43
57232;BME280;43488;46.934;8.276;2023-11-18T11:46:59;97361.00;;;7.28;85.99
57232;BME280;43488;46.934;8.276;2023-11-18T11:49:39;97366.59;;;7.25;85.48
57232;BME280;43488;46.934;8.276;2023-11-18T11:52:30;97364.63;;;7.27;85.94
57232;BME280;43488;46.934;8.276;2023-11-18T11:55:12;97375.91;;;7.28;87.86
57232;BME280;43488;46.934;8.276;2023-11-18T11:57:42;97381.63;;;7.31;86.46
57232;BME280;43488;46.934;8.276;2023-11-18T12:00:17;97379.00;;;7.31;85.52
57232;BME280;43488;46.934;8.276;2023-11-18T12:02:49;97380.50;;;7.26;84.62
57232;BME280;43488;46.934;8.276;2023-11-18T12:05:17;97382.47;;;7.24;84.97
57232;BME280;43488;46.934;8.276;2023-11-18T12:07:53;97384.59;;;7.20;86.39
57232;BME280;43488;46.934;8.276;2023-11-18T12:10:27;97383.94;;;7.18;86.96
57232;BME280;43488;46.934;8.276;2023-11-18T12:13:16;97399.97;;;7.15;87.31
57232;BME280;43488;46.934;8.276;2023-11-18T12:15:52;97393.41;;;7.11;86.91
57232;BME280;43488;46.934;8.276;2023-11-18T12:18:31;97401.94;;;7.05;87.10
57232;BME280;43488;46.934;8.276;2023-11-18T12:20:59;97391.63;;;7.03;87.39
57232;BME280;43488;46.934;8.276;2023-11-18T12:23:30;97379.34;;;7.04;88.17
57232;BME280;43488;46.934;8.276;2023-11-18T12:25:58;97382.13;;;7.02;89.21
57232;BME280;43488;46.934;8.276;2023-11-18T12:28:33;97378.69;;;7.02;89.66
57232;BME280;43488;46.934;8.276;2023-11-18T12:31:04;97370.84;;;7.02;89.13
57232;BME280;43488;46.934;8.276;2023-11-18T12:42:56;97358.06;;;6.82;92.31
57232;BME280;43488;46.934;8.276;2023-11-18T12:45:49;97356.78;;;6.78;93.93
57232;BME280;43488;46.934;8.276;2023-11-18T12:48:22;97352.53;;;6.77;94.38
57232;BME280;43488;46.934;8.276;2023-11-18T12:50:53;97358.56;;;6.78;94.71
57232;BME280;43488;46.934;8.276;2023-11-18T12:53:26;97350.88;;;6.76;95.06
57232;BME280;43488;46.934;8.276;2023-11-18T12:55:55;97342.88;;;6.70;95.54
57232;BME280;43488;46.934;8.276;2023-11-18T12:58:25;97346.59;;;6.67;95.01
57232;BME280;43488;46.934;8.276;2023-11-18T13:00:53;97335.19;;;6.68;95.73
57232;BME280;43488;46.934;8.276;2023-11-18T13:03:22;97327.63;;;6.65;95.59
57232;BME280;43488;46.934;8.276;2023-11-18T13:05:51;97324.03;;;6.66;96.15
57232;BME280;43488;46.934;8.276;2023-11-18T13:08:19;97319.13;;;6.63;97.71
57232;BME280;43488;46.934;8.276;2023-11-18T13:10:49;97313.91;;;6.63;95.86
57232;BME280;43488;46.934;8.276;2023-11-18T13:13:18;97307.53;;;6.66;95.97
57232;BME280;43488;46.934;8.276;2023-11-18T13:15:47;97309.00;;;6.60;96.12
57232;BME280;43488;46.934;8.276;2023-11-18T13:18:19;97310.66;;;6.61;97.21
57232;BME280;43488;46.934;8.276;2023-11-18T13:20:57;97304.91;;;6.57;96.91
57232;BME280;43488;46.934;8.276;2023-11-18T13:23:26;97292.97;;;6.55;98.32
57232;BME280;43488;46.934;8.276;2023-11-18T13:25:59;97291.69;;;6.51;97.87
57232;BME280;43488;46.934;8.276;2023-11-18T13:28:27;97297.72;;;6.51;98.43
57232;BME280;43488;46.934;8.276;2023-11-18T13:30:55;97296.75;;;6.52;99.71
57232;BME280;43488;46.934;8.276;2023-11-18T13:33:23;97289.88;;;6.51;99.30
57232;BME280;43488;46.934;8.276;2023-11-18T13:35:50;97287.09;;;6.53;98.58
57232;BME280;43488;46.934;8.276;2023-11-18T13:38:18;97274.00;;;6.53;96.80
57232;BME280;43488;46.934;8.276;2023-11-18T13:40:47;97276.63;;;6.53;97.09
57232;BME280;43488;46.934;8.276;2023-11-18T13:43:14;97275.63;;;6.46;95.50
57232;BME280;43488;46.934;8.276;2023-11-18T13:45:41;97266.50;;;6.42;95.59
57232;BME280;43488;46.934;8.276;2023-11-18T13:48:11;97260.28;;;6.43;94.52
57232;BME280;43488;46.934;8.276;2023-11-18T13:50:43;97259.28;;;6.44;93.40
57232;BME280;43488;46.934;8.276;2023-11-18T13:53:11;97257.31;;;6.46;92.95